Time;durP1;ratioP1;P1;durP2;ratioP2;P2;SDS_P1;SDS_P2;PMS_P1;PMS_P2;Temp;Humidity;BMP_temperature;BMP_pressure;BME280_temperature;BME280_humidity;BME280_pressure;Samples;Min_cycle;Max_cycle;Signal;HPM_P1;HPM_P2
2022/03/23 00:02:18;;;;;;;21.27;5.10;;;;;;;;;;4928196;29;20136;-69
2022/03/23 00:04:44;;;;;;;26.85;5.22;;;;;;;;;;4929914;29;20656;-67
2022/03/23 00:07:10;;;;;;;17.92;5.53;;;;;;;;;;4927098;29;20048;-67
2022/03/23 00:09:36;;;;;;;17.45;5.30;;;;;;;;;;4926157;29;20094;-69
2022/03/23 00:12:02;;;;;;;14.00;4.38;;;;;;;;;;4924956;29;20580;-67
2022/03/23 00:14:28;;;;;;;13.52;4.55;;;;;;;;;;4925369;29;20136;-67
2022/03/23 00:16:54;;;;;;;19.33;4.72;;;;;;;;;;4926421;29;20059;-71
2022/03/23 00:19:20;;;;;;;14.68;4.85;;;;;;;;;;4923848;29;20151;-68
2022/03/23 00:21:45;;;;;;;12.68;4.18;;;;;;;;;;4926382;29;20049;-68
2022/03/23 00:24:11;;;;;;;14.30;4.53;;;;;;;;;;4925406;29;20126;-68
2022/03/23 00:26:37;;;;;;;18.98;5.15;;;;;;;;;;4924525;29;20043;-67
2022/03/23 00:29:03;;;;;;;13.23;5.10;;;;;;;;;;4909597;29;20154;-72
2022/03/23 00:31:30;;;;;;;12.82;4.50;;;;;;;;;;4925124;29;20059;-68
2022/03/23 00:33:57;;;;;;;18.60;5.30;;;;;;;;;;4924603;29;20075;-67
2022/03/23 00:36:24;;;;;;;17.45;5.32;;;;;;;;;;4925005;29;20576;-67
2022/03/23 00:38:53;;;;;;;19.98;6.00;;;;;;;;;;4923565;29;20047;-68
2022/03/23 00:41:20;;;;;;;23.42;6.25;;;;;;;;;;4921617;29;20056;-70
2022/03/23 00:43:46;;;;;;;19.83;5.63;;;;;;;;;;4925936;29;20493;-68
2022/03/23 00:46:12;;;;;;;23.58;5.63;;;;;;;;;;4925626;29;20048;-68
2022/03/23 00:48:38;;;;;;;16.15;5.28;;;;;;;;;;4925719;29;20056;-67
2022/03/23 00:51:03;;;;;;;16.17;5.20;;;;;;;;;;4926166;29;20059;-70
2022/03/23 00:53:30;;;;;;;15.68;5.00;;;;;;;;;;4927520;29;20398;-67
2022/03/23 00:55:56;;;;;;;21.35;5.55;;;;;;;;;;4923850;29;20842;-68
2022/03/23 00:58:21;;;;;;;11.10;4.45;;;;;;;;;;4923930;29;20126;-67
2022/03/23 01:00:48;;;;;;;12.63;4.88;;;;;;;;;;4925073;29;20051;-68
2022/03/23 01:03:15;;;;;;;18.67;4.80;;;;;;;;;;4927109;29;20047;-70
2022/03/23 01:05:41;;;;;;;18.20;4.72;;;;;;;;;;4912113;29;20385;-67
2022/03/23 01:08:07;;;;;;;18.35;5.25;;;;;;;;;;4923766;29;20178;-66
2022/03/23 01:10:34;;;;;;;12.40;4.47;;;;;;;;;;4921899;29;20170;-67
2022/03/23 01:13:00;;;;;;;15.05;5.30;;;;;;;;;;4927395;29;20486;-70
2022/03/23 01:15:26;;;;;;;24.02;5.00;;;;;;;;;;4925732;29;20068;-68
2022/03/23 01:17:52;;;;;;;16.02;4.80;;;;;;;;;;4923523;29;20063;-67
2022/03/23 01:20:22;;;;;;;19.50;5.30;;;;;;;;;;4912014;29;20501;-69
2022/03/23 01:22:50;;;;;;;31.42;6.10;;;;;;;;;;4922424;29;20052;-68
2022/03/23 01:25:16;;;;;;;15.65;4.82;;;;;;;;;;4922864;29;20039;-68
2022/03/23 01:27:43;;;;;;;15.45;4.78;;;;;;;;;;4922061;29;20059;-64
2022/03/23 01:30:11;;;;;;;23.48;5.93;;;;;;;;;;4906266;29;20071;-68
2022/03/23 01:32:38;;;;;;;22.88;4.70;;;;;;;;;;4925502;29;20052;-69
2022/03/23 01:35:07;;;;;;;18.95;4.60;;;;;;;;;;4920949;29;20078;-67
2022/03/23 01:37:34;;;;;;;21.30;5.68;;;;;;;;;;4923673;29;20072;-72
2022/03/23 01:40:06;;;;;;;19.95;4.53;;;;;;;;;;4924650;29;20051;-69
2022/03/23 01:42:32;;;;;;;17.73;5.00;;;;;;;;;;4908357;29;21307;-68
2022/03/23 01:44:58;;;;;;;17.40;4.97;;;;;;;;;;4925496;29;20073;-71
2022/03/23 01:47:24;;;;;;;16.60;4.35;;;;;;;;;;4923308;29;20094;-68
2022/03/23 01:49:53;;;;;;;13.05;4.35;;;;;;;;;;4918652;29;20039;-69
2022/03/23 01:52:22;;;;;;;24.77;5.07;;;;;;;;;;4922470;29;20420;-68
2022/03/23 01:54:48;;;;;;;16.08;4.50;;;;;;;;;;4918324;29;20047;-72
2022/03/23 01:57:16;;;;;;;19.25;4.57;;;;;;;;;;4920766;29;21027;-68
2022/03/23 01:59:42;;;;;;;18.05;4.38;;;;;;;;;;4925333;29;20055;-67
2022/03/23 02:02:08;;;;;;;17.27;5.35;;;;;;;;;;4922472;29;20421;-67
2022/03/23 02:04:35;;;;;;;15.10;4.82;;;;;;;;;;4923677;29;20082;-67
2022/03/23 02:07:01;;;;;;;16.52;5.30;;;;;;;;;;4924576;29;20048;-67
2022/03/23 02:09:27;;;;;;;17.65;4.35;;;;;;;;;;4927774;29;20052;-68
2022/03/23 02:11:54;;;;;;;16.20;4.70;;;;;;;;;;4927009;29;20050;-67
2022/03/23 02:14:20;;;;;;;15.73;5.18;;;;;;;;;;4928346;29;20063;-71
2022/03/23 02:16:52;;;;;;;16.98;4.40;;;;;;;;;;4925396;29;20048;-68
2022/03/23 02:19:21;;;;;;;18.23;4.78;;;;;;;;;;4930850;29;20047;-67
2022/03/23 02:21:55;;;;;;;20.35;4.80;;;;;;;;;;4927487;29;20114;-68
2022/03/23 02:24:26;;;;;;;14.98;4.55;;;;;;;;;;4925107;29;20048;-66
2022/03/23 02:26:53;;;;;;;20.33;4.70;;;;;;;;;;4920279;29;20063;-66
2022/03/23 02:29:22;;;;;;;22.13;4.38;;;;;;;;;;4927886;29;20048;-68
2022/03/23 02:31:48;;;;;;;16.80;4.30;;;;;;;;;;4927031;29;20086;-70
2022/03/23 02:34:14;;;;;;;17.02;4.65;;;;;;;;;;4927566;29;20047;-67
2022/03/23 02:36:40;;;;;;;17.75;4.97;;;;;;;;;;4922903;29;20062;-66
2022/03/23 02:39:06;;;;;;;16.83;4.43;;;;;;;;;;4925114;29;20063;-67
2022/03/23 02:41:32;;;;;;;13.35;4.47;;;;;;;;;;4923044;29;20413;-67
2022/03/23 02:43:59;;;;;;;11.32;4.40;;;;;;;;;;4926610;29;20047;-67
2022/03/23 02:46:26;;;;;;;18.20;4.78;;;;;;;;;;4926100;29;20058;-67
2022/03/23 02:48:52;;;;;;;17.35;5.03;;;;;;;;;;4923978;29;20048;-66
2022/03/23 02:51:18;;;;;;;23.20;4.80;;;;;;;;;;4926736;29;20410;-68
2022/03/23 03:02:59;;;;;;;24.83;4.93;;;;;;;;;;4925780;29;20052;-67
2022/03/23 03:05:25;;;;;;;17.73;5.53;;;;;;;;;;4925401;29;20079;-67
2022/03/23 03:10:35;;;;;;;18.75;5.00;;;;;;;;;;4921256;29;20055;-65
2022/03/23 03:13:01;;;;;;;14.60;4.85;;;;;;;;;;4921527;29;20106;-66
2022/03/23 03:15:27;;;;;;;20.50;4.97;;;;;;;;;;4927253;29;20087;-69
2022/03/23 03:18:00;;;;;;;19.52;5.45;;;;;;;;;;4925347;29;20098;-69
2022/03/23 03:20:27;;;;;;;21.02;5.20;;;;;;;;;;4926592;29;20241;-66
2022/03/23 03:22:53;;;;;;;18.85;4.85;;;;;;;;;;4924152;29;20513;-68
2022/03/23 03:25:21;;;;;;;21.63;5.85;;;;;;;;;;4925329;29;20050;-67
2022/03/23 03:27:47;;;;;;;19.35;4.97;;;;;;;;;;4921041;29;20403;-66
2022/03/23 03:30:15;;;;;;;16.73;4.78;;;;;;;;;;4924879;29;20052;-65
2022/03/23 03:32:43;;;;;;;16.15;4.88;;;;;;;;;;4927707;29;20055;-66
2022/03/23 03:35:09;;;;;;;21.48;4.80;;;;;;;;;;4925164;29;20058;-66
2022/03/23 03:37:36;;;;;;;24.05;5.32;;;;;;;;;;4921512;29;20087;-66
2022/03/23 03:40:08;;;;;;;15.70;4.60;;;;;;;;;;4923895;29;20114;-66
2022/03/23 03:42:34;;;;;;;16.63;4.32;;;;;;;;;;4908436;29;20424;-68
2022/03/23 03:45:01;;;;;;;19.73;4.78;;;;;;;;;;4925995;29;20119;-66
2022/03/23 03:47:27;;;;;;;17.33;5.05;;;;;;;;;;4902207;29;20056;-67
2022/03/23 03:49:53;;;;;;;23.83;5.47;;;;;;;;;;4928657;29;20079;-67
2022/03/23 03:52:20;;;;;;;26.15;5.82;;;;;;;;;;4924849;29;20441;-67
2022/03/23 03:54:46;;;;;;;22.98;5.22;;;;;;;;;;4923724;29;20317;-65
2022/03/23 03:57:12;;;;;;;23.00;4.20;;;;;;;;;;4920188;29;20465;-67
2022/03/23 03:59:38;;;;;;;15.38;4.60;;;;;;;;;;4924338;29;20047;-67
2022/03/23 04:02:04;;;;;;;22.60;4.50;;;;;;;;;;4923406;29;20051;-66
2022/03/23 04:04:30;;;;;;;20.90;4.28;;;;;;;;;;4926799;29;20051;-65
2022/03/23 04:06:56;;;;;;;18.02;4.32;;;;;;;;;;4919689;29;20071;-69
2022/03/23 04:09:23;;;;;;;18.00;4.45;;;;;;;;;;4926484;29;20055;-68
2022/03/23 04:11:49;;;;;;;19.63;4.47;;;;;;;;;;4925651;29;20390;-66
2022/03/23 04:14:15;;;;;;;19.05;4.03;;;;;;;;;;4928385;29;20054;-66
2022/03/23 04:16:41;;;;;;;16.00;4.97;;;;;;;;;;4925322;29;20052;-66
2022/03/23 04:19:07;;;;;;;21.83;4.80;;;;;;;;;;4923771;29;20047;-66
2022/03/23 04:21:35;;;;;;;20.10;3.75;;;;;;;;;;4921030;29;20051;-66
2022/03/23 04:24:01;;;;;;;19.58;4.57;;;;;;;;;;4922597;29;20046;-67
2022/03/23 04:26:27;;;;;;;19.90;3.83;;;;;;;;;;4923559;29;20055;-66
2022/03/23 04:28:52;;;;;;;14.95;4.18;;;;;;;;;;4925834;29;20051;-65
2022/03/23 04:31:18;;;;;;;16.17;4.28;;;;;;;;;;4928793;29;20370;-67
2022/03/23 04:33:44;;;;;;;19.63;4.50;;;;;;;;;;4926638;29;20047;-67
2022/03/23 04:36:13;;;;;;;12.57;3.88;;;;;;;;;;4924361;29;20054;-65
2022/03/23 04:38:39;;;;;;;18.45;4.38;;;;;;;;;;4919164;29;20878;-68
2022/03/23 04:41:05;;;;;;;11.35;3.92;;;;;;;;;;4924557;29;20059;-70
2022/03/23 04:43:32;;;;;;;19.33;4.47;;;;;;;;;;4925241;29;20055;-66
2022/03/23 04:45:58;;;;;;;17.77;4.10;;;;;;;;;;4923673;29;20099;-68
2022/03/23 04:48:24;;;;;;;13.30;3.88;;;;;;;;;;4923333;29;20051;-66
2022/03/23 04:50:50;;;;;;;16.30;3.95;;;;;;;;;;4923613;29;20058;-66
2022/03/23 04:53:17;;;;;;;14.10;4.25;;;;;;;;;;4924898;29;20052;-68
2022/03/23 04:55:43;;;;;;;16.45;4.15;;;;;;;;;;4922340;29;20052;-65
2022/03/23 04:58:09;;;;;;;16.92;4.13;;;;;;;;;;4924060;29;20048;-67
2022/03/23 05:00:35;;;;;;;16.70;4.30;;;;;;;;;;4904740;29;20083;-67
2022/03/23 05:03:02;;;;;;;25.95;3.85;;;;;;;;;;4922951;29;20048;-66
2022/03/23 05:05:27;;;;;;;18.48;3.75;;;;;;;;;;4925022;29;20048;-67
2022/03/23 05:07:53;;;;;;;14.20;4.07;;;;;;;;;;4922053;29;20048;-65
2022/03/23 05:10:19;;;;;;;13.15;3.78;;;;;;;;;;4920844;29;20078;-65
2022/03/23 05:12:46;;;;;;;13.20;3.72;;;;;;;;;;4926437;29;20048;-66
2022/03/23 05:15:14;;;;;;;21.15;4.45;;;;;;;;;;4926074;29;20139;-66
2022/03/23 05:17:41;;;;;;;16.30;4.38;;;;;;;;;;4923952;29;20060;-66
2022/03/23 05:20:09;;;;;;;20.73;4.28;;;;;;;;;;4922499;29;20142;-66
2022/03/23 05:22:37;;;;;;;15.13;4.30;;;;;;;;;;4924311;29;20062;-72
2022/03/23 05:25:04;;;;;;;18.35;4.28;;;;;;;;;;4922115;29;20131;-67
2022/03/23 05:27:40;;;;;;;20.70;5.38;;;;;;;;;;4903226;29;20047;-66
2022/03/23 05:30:09;;;;;;;17.75;4.63;;;;;;;;;;4926121;29;20048;-67
2022/03/23 05:32:35;;;;;;;10.63;3.60;;;;;;;;;;4925057;29;20126;-66
2022/03/23 05:35:03;;;;;;;18.27;3.92;;;;;;;;;;4925881;29;20052;-68
2022/03/23 05:37:29;;;;;;;12.02;3.65;;;;;;;;;;4920749;29;20048;-67
2022/03/23 05:39:56;;;;;;;19.65;3.80;;;;;;;;;;4926111;29;21121;-66
2022/03/23 05:42:21;;;;;;;19.35;4.22;;;;;;;;;;4927570;29;20056;-66
2022/03/23 05:48:15;;;;;;;17.83;4.45;;;;;;;;;;4927888;29;20051;-65
2022/03/23 05:50:41;;;;;;;24.92;4.93;;;;;;;;;;4926567;29;20051;-66
2022/03/23 05:53:08;;;;;;;19.45;4.18;;;;;;;;;;4925734;29;20051;-67
2022/03/23 05:55:34;;;;;;;13.20;3.72;;;;;;;;;;4928014;29;20115;-67
2022/03/23 05:58:00;;;;;;;12.48;3.80;;;;;;;;;;4927040;29;20054;-66
2022/03/23 06:00:27;;;;;;;20.90;4.05;;;;;;;;;;4927889;29;20061;-66
2022/03/23 06:02:52;;;;;;;17.80;3.80;;;;;;;;;;4927522;29;20044;-66
2022/03/23 06:05:18;;;;;;;17.02;4.07;;;;;;;;;;4928627;29;20048;-65
2022/03/23 06:07:44;;;;;;;12.63;3.85;;;;;;;;;;4924030;29;20074;-67
2022/03/23 06:10:10;;;;;;;19.40;4.18;;;;;;;;;;4927164;29;20470;-66
2022/03/23 06:12:36;;;;;;;11.15;3.90;;;;;;;;;;4926573;29;20051;-66
2022/03/23 06:15:03;;;;;;;13.50;3.83;;;;;;;;;;4931322;29;20059;-66
2022/03/23 06:17:29;;;;;;;13.35;4.05;;;;;;;;;;4924135;29;20114;-68
2022/03/23 06:19:55;;;;;;;15.85;4.25;;;;;;;;;;4929367;29;20047;-67
2022/03/23 06:22:21;;;;;;;24.48;4.95;;;;;;;;;;4917150;29;20052;-66
2022/03/23 06:24:47;;;;;;;20.15;5.03;;;;;;;;;;4923088;29;20162;-66
2022/03/23 06:27:12;;;;;;;19.80;4.60;;;;;;;;;;4923545;29;20060;-68
2022/03/23 06:29:39;;;;;;;26.38;4.32;;;;;;;;;;4925398;29;20055;-67
2022/03/23 06:32:05;;;;;;;15.32;4.57;;;;;;;;;;4924273;29;20541;-72
2022/03/23 06:34:31;;;;;;;14.60;3.80;;;;;;;;;;4926617;29;20052;-67
2022/03/23 06:36:58;;;;;;;10.93;3.88;;;;;;;;;;4920600;29;20603;-69
2022/03/23 06:39:24;;;;;;;12.65;3.50;;;;;;;;;;4923858;29;20055;-67
2022/03/23 06:41:50;;;;;;;22.05;4.05;;;;;;;;;;4927218;29;20056;-66
2022/03/23 06:44:17;;;;;;;15.25;3.70;;;;;;;;;;4927122;29;20880;-67
2022/03/23 06:46:43;;;;;;;17.85;4.05;;;;;;;;;;4923684;29;20398;-66
2022/03/23 06:49:09;;;;;;;13.55;3.70;;;;;;;;;;4922765;29;20059;-67
2022/03/23 06:51:35;;;;;;;17.48;3.70;;;;;;;;;;4923937;29;20047;-68
2022/03/23 06:54:00;;;;;;;9.40;3.83;;;;;;;;;;4924570;29;20039;-67
2022/03/23 06:56:26;;;;;;;10.50;3.80;;;;;;;;;;4926005;29;20052;-68
2022/03/23 06:58:52;;;;;;;13.10;3.55;;;;;;;;;;4923504;29;20524;-68
2022/03/23 07:01:18;;;;;;;12.88;3.72;;;;;;;;;;4922876;29;20051;-70
2022/03/23 07:03:44;;;;;;;10.73;3.75;;;;;;;;;;4925959;29;20067;-68
2022/03/23 07:06:10;;;;;;;19.08;4.68;;;;;;;;;;4924093;29;20048;-70
2022/03/23 07:11:21;;;;;;;14.10;3.50;;;;;;;;;;4919326;29;20143;-67
2022/03/23 07:13:46;;;;;;;12.63;3.08;;;;;;;;;;4922316;29;20066;-66
2022/03/23 07:16:12;;;;;;;13.48;3.78;;;;;;;;;;4923627;29;20263;-70
2022/03/23 07:18:38;;;;;;;11.77;3.72;;;;;;;;;;4920130;29;20056;-66
2022/03/23 07:21:04;;;;;;;17.23;3.90;;;;;;;;;;4921998;29;20218;-68
2022/03/23 07:23:31;;;;;;;19.00;4.25;;;;;;;;;;4923691;29;20138;-70
2022/03/23 07:25:57;;;;;;;16.33;4.50;;;;;;;;;;4919399;29;20062;-67
2022/03/23 07:28:23;;;;;;;14.63;4.90;;;;;;;;;;4905165;29;20059;-64
2022/03/23 07:30:49;;;;;;;13.77;3.83;;;;;;;;;;4923911;29;20059;-67
2022/03/23 07:33:15;;;;;;;17.52;5.05;;;;;;;;;;4920775;29;20115;-65
2022/03/23 07:35:41;;;;;;;12.95;3.42;;;;;;;;;;4925910;29;20060;-67
2022/03/23 07:38:07;;;;;;;11.20;3.67;;;;;;;;;;4910732;29;20556;-68
2022/03/23 07:40:33;;;;;;;16.75;3.85;;;;;;;;;;4926375;29;20040;-65
2022/03/23 07:42:59;;;;;;;18.85;4.50;;;;;;;;;;4928335;29;20073;-63
2022/03/23 07:45:26;;;;;;;13.77;3.75;;;;;;;;;;4926694;29;20168;-66
2022/03/23 07:47:52;;;;;;;14.73;3.63;;;;;;;;;;4930844;29;20044;-64
2022/03/23 07:50:18;;;;;;;17.25;4.20;;;;;;;;;;4929255;29;20051;-65
2022/03/23 07:52:44;;;;;;;16.05;4.90;;;;;;;;;;4930414;29;20649;-65
2022/03/23 07:55:10;;;;;;;18.65;4.10;;;;;;;;;;4929818;29;20056;-67
2022/03/23 07:57:36;;;;;;;19.35;4.65;;;;;;;;;;4929939;29;20043;-62
2022/03/23 08:00:03;;;;;;;19.48;4.68;;;;;;;;;;4931377;29;20048;-65
2022/03/23 08:02:29;;;;;;;17.20;4.78;;;;;;;;;;4919170;29;20054;-64
2022/03/23 08:04:55;;;;;;;15.25;4.43;;;;;;;;;;4928194;29;20043;-63
2022/03/23 08:07:22;;;;;;;20.05;5.30;;;;;;;;;;4929256;29;20044;-63
2022/03/23 08:09:48;;;;;;;18.00;5.63;;;;;;;;;;4924387;29;20523;-64
2022/03/23 08:12:16;;;;;;;26.23;5.40;;;;;;;;;;4927774;29;20524;-63
2022/03/23 08:14:44;;;;;;;12.18;4.72;;;;;;;;;;4932362;29;20083;-63
2022/03/23 08:17:11;;;;;;;15.80;4.80;;;;;;;;;;4935603;29;20079;-64
2022/03/23 08:19:37;;;;;;;16.05;4.88;;;;;;;;;;4940755;29;20063;-66
2022/03/23 08:22:03;;;;;;;15.57;4.88;;;;;;;;;;4930568;29;20040;-64
2022/03/23 08:24:29;;;;;;;19.88;5.50;;;;;;;;;;4931320;29;20047;-64
2022/03/23 08:26:55;;;;;;;19.80;4.35;;;;;;;;;;4927630;29;20062;-64
2022/03/23 08:29:21;;;;;;;14.13;4.28;;;;;;;;;;4926363;29;20082;-65
2022/03/23 08:31:47;;;;;;;15.70;4.78;;;;;;;;;;4930956;29;20401;-68
2022/03/23 08:34:13;;;;;;;19.38;4.82;;;;;;;;;;4926723;29;20048;-65
2022/03/23 08:36:39;;;;;;;21.60;4.90;;;;;;;;;;4934018;29;20054;-67
2022/03/23 08:39:05;;;;;;;9.65;3.42;;;;;;;;;;4929434;29;20075;-66
2022/03/23 08:41:32;;;;;;;20.75;4.15;;;;;;;;;;4928877;29;20043;-64
2022/03/23 08:43:58;;;;;;;12.80;3.97;;;;;;;;;;4926785;29;20489;-65
2022/03/23 08:46:25;;;;;;;17.15;4.30;;;;;;;;;;4929144;29;20057;-64
2022/03/23 08:48:52;;;;;;;16.05;4.25;;;;;;;;;;4929476;29;20520;-68
2022/03/23 08:51:19;;;;;;;21.50;4.53;;;;;;;;;;4931179;29;20055;-63
2022/03/23 08:53:45;;;;;;;11.02;4.05;;;;;;;;;;4930018;29;20060;-66
2022/03/23 08:56:12;;;;;;;13.65;3.55;;;;;;;;;;4927007;29;20617;-63
2022/03/23 08:58:49;;;;;;;10.38;3.60;;;;;;;;;;4924783;29;20566;-65
2022/03/23 09:01:16;;;;;;;9.95;3.53;;;;;;;;;;4929768;29;20051;-64
2022/03/23 09:03:43;;;;;;;17.67;4.00;;;;;;;;;;4925330;29;20130;-64
2022/03/23 09:06:10;;;;;;;13.20;4.28;;;;;;;;;;4928719;29;20050;-64
2022/03/23 09:08:36;;;;;;;20.17;3.78;;;;;;;;;;4929365;29;20052;-67
2022/03/23 09:11:02;;;;;;;13.65;4.10;;;;;;;;;;4930241;29;20056;-64
2022/03/23 09:13:28;;;;;;;14.40;4.22;;;;;;;;;;4930623;29;20068;-65
2022/03/23 09:15:54;;;;;;;16.00;3.92;;;;;;;;;;4928471;29;20062;-65
2022/03/23 09:18:20;;;;;;;13.70;3.60;;;;;;;;;;4938200;29;20052;-66
2022/03/23 09:20:46;;;;;;;16.13;4.22;;;;;;;;;;4935818;29;20402;-64
2022/03/23 09:23:12;;;;;;;16.52;3.97;;;;;;;;;;4937783;29;20052;-65
2022/03/23 09:25:40;;;;;;;20.33;4.18;;;;;;;;;;4931350;29;20823;-64
2022/03/23 09:28:06;;;;;;;15.00;4.05;;;;;;;;;;4929983;29;20131;-70
2022/03/23 09:30:32;;;;;;;16.05;3.72;;;;;;;;;;4935019;29;20258;-67
2022/03/23 09:33:00;;;;;;;18.95;3.63;;;;;;;;;;4924199;29;20043;-66
2022/03/23 09:35:27;;;;;;;14.23;3.70;;;;;;;;;;4936288;29;20489;-65
2022/03/23 09:37:53;;;;;;;14.10;3.60;;;;;;;;;;4933416;29;20070;-68
2022/03/23 09:40:27;;;;;;;15.07;3.78;;;;;;;;;;4929204;29;20492;-65
2022/03/23 09:42:57;;;;;;;8.75;3.60;;;;;;;;;;4931669;29;20435;-67
2022/03/23 09:48:09;;;;;;;14.70;4.20;;;;;;;;;;4932903;29;20051;-66
2022/03/23 09:50:37;;;;;;;16.63;4.10;;;;;;;;;;4941074;29;20130;-65
2022/03/23 09:53:03;;;;;;;18.25;3.80;;;;;;;;;;4943934;28;20320;-67
2022/03/23 09:55:30;;;;;;;16.45;4.65;;;;;;;;;;4941721;29;20166;-70
2022/03/23 09:57:58;;;;;;;10.50;3.78;;;;;;;;;;4940222;29;20047;-64
2022/03/23 10:00:27;;;;;;;16.20;3.67;;;;;;;;;;4941283;29;20556;-66
2022/03/23 10:02:57;;;;;;;15.40;4.00;;;;;;;;;;4939597;29;20082;-63
2022/03/23 10:05:28;;;;;;;15.27;4.30;;;;;;;;;;4935812;29;20398;-69
2022/03/23 10:08:23;;;;;;;11.75;3.75;;;;;;;;;;4946374;29;20424;-65
2022/03/23 10:11:33;;;;;;;19.10;4.03;;;;;;;;;;4930889;29;20087;-65
2022/03/23 10:14:37;;;;;;;17.58;3.83;;;;;;;;;;4850036;29;20785;-65
2022/03/23 10:17:12;;;;;;;14.90;3.65;;;;;;;;;;4880686;29;20048;-63
2022/03/23 10:19:44;;;;;;;10.80;3.50;;;;;;;;;;4873307;29;20049;-64
2022/03/23 10:22:13;;;;;;;11.43;3.15;;;;;;;;;;4878818;29;20076;-70
2022/03/23 10:24:38;;;;;;;16.02;3.60;;;;;;;;;;4867489;29;20061;-64
2022/03/23 10:27:13;;;;;;;18.88;4.00;;;;;;;;;;4871469;29;20049;-64
2022/03/23 10:29:41;;;;;;;14.10;4.05;;;;;;;;;;4873794;29;20073;-66
2022/03/23 10:32:08;;;;;;;13.50;3.67;;;;;;;;;;4876613;29;20052;-64
2022/03/23 10:34:47;;;;;;;16.08;3.75;;;;;;;;;;4877058;29;20044;-65
2022/03/23 10:37:15;;;;;;;21.52;3.97;;;;;;;;;;4870036;29;20061;-66
2022/03/23 10:39:41;;;;;;;17.35;3.65;;;;;;;;;;4867657;29;20065;-65
2022/03/23 10:42:13;;;;;;;12.80;4.13;;;;;;;;;;4872411;29;20057;-66
2022/03/23 10:44:40;;;;;;;13.95;3.80;;;;;;;;;;4902965;29;20064;-64
2022/03/23 10:47:06;;;;;;;15.80;3.75;;;;;;;;;;4910942;29;20139;-66
2022/03/23 10:49:34;;;;;;;13.90;4.10;;;;;;;;;;4936524;29;20126;-66
2022/03/23 10:52:09;;;;;;;12.93;3.50;;;;;;;;;;4938400;29;20450;-67
2022/03/23 10:54:35;;;;;;;16.42;3.80;;;;;;;;;;4926614;29;20059;-63
2022/03/23 10:57:02;;;;;;;17.70;4.05;;;;;;;;;;4930239;29;20058;-64
2022/03/23 10:59:28;;;;;;;11.38;3.53;;;;;;;;;;4933891;29;20055;-65
2022/03/23 11:01:57;;;;;;;9.85;3.75;;;;;;;;;;4941605;29;20137;-63
2022/03/23 11:04:28;;;;;;;19.77;4.53;;;;;;;;;;4935167;29;20104;-64
2022/03/23 11:06:56;;;;;;;14.38;3.78;;;;;;;;;;4922771;29;20053;-63
2022/03/23 11:18:17;;;;;;;18.27;3.45;;;;;;;;;;4886008;29;20047;-64
2022/03/23 11:20:47;;;;;;;10.98;3.47;;;;;;;;;;4928200;29;20052;-65
2022/03/23 11:23:20;;;;;;;12.40;3.30;;;;;;;;;;4930194;29;20075;-65
2022/03/23 11:25:51;;;;;;;18.73;3.80;;;;;;;;;;4935130;29;20062;-66
2022/03/23 11:28:18;;;;;;;17.23;3.45;;;;;;;;;;4932677;29;20095;-65
2022/03/23 11:30:45;;;;;;;13.30;3.42;;;;;;;;;;4934262;29;20106;-67
2022/03/23 11:33:14;;;;;;;12.63;3.78;;;;;;;;;;4943623;29;20078;-65
2022/03/23 11:35:49;;;;;;;12.25;3.85;;;;;;;;;;4948817;29;20056;-63
2022/03/23 11:38:18;;;;;;;21.65;4.75;;;;;;;;;;4952616;28;20146;-68
2022/03/23 11:40:46;;;;;;;13.13;3.20;;;;;;;;;;4930555;29;20059;-64
2022/03/23 11:43:14;;;;;;;16.85;3.88;;;;;;;;;;4937701;29;20103;-65
2022/03/23 11:45:43;;;;;;;11.75;3.03;;;;;;;;;;4932237;29;20047;-64
2022/03/23 11:48:33;;;;;;;15.40;3.90;;;;;;;;;;4930635;29;20122;-65
2022/03/23 11:51:36;;;;;;;8.32;3.22;;;;;;;;;;4929597;29;20046;-70
2022/03/23 11:55:36;;;;;;;16.02;3.58;;;;;;;;;;4928862;29;20039;-64
2022/03/23 11:57:16;;;;;;;14.25;3.38;;;;;;;;;;4928376;29;20055;-65
2022/03/23 11:59:43;;;;;;;16.15;3.35;;;;;;;;;;4931057;29;20043;-67
2022/03/23 12:02:09;;;;;;;19.13;4.53;;;;;;;;;;4932667;29;20056;-66
2022/03/23 12:04:35;;;;;;;13.82;3.05;;;;;;;;;;4932658;29;20062;-64
2022/03/23 12:07:07;;;;;;;9.63;3.05;;;;;;;;;;4926991;29;20621;-69
2022/03/23 12:09:37;;;;;;;16.88;4.13;;;;;;;;;;4929517;29;20114;-72
2022/03/23 12:12:06;;;;;;;7.20;3.22;;;;;;;;;;4929012;29;20123;-65
2022/03/23 12:14:36;;;;;;;12.90;3.00;;;;;;;;;;4926486;29;20040;-64
2022/03/23 12:17:05;;;;;;;13.00;3.45;;;;;;;;;;4913349;29;20051;-66
2022/03/23 12:19:51;;;;;;;9.13;3.45;;;;;;;;;;4930698;29;20098;-66
2022/03/23 12:22:46;;;;;;;11.40;3.45;;;;;;;;;;4929496;29;20043;-64
2022/03/23 12:25:24;;;;;;;10.57;3.90;;;;;;;;;;4913223;29;20161;-65
2022/03/23 12:28:02;;;;;;;12.48;4.05;;;;;;;;;;4933596;29;20511;-66
2022/03/23 12:30:28;;;;;;;16.45;5.15;;;;;;;;;;4923172;29;20054;-63
2022/03/23 12:33:00;;;;;;;12.55;4.47;;;;;;;;;;4924267;29;20051;-66
2022/03/23 12:35:34;;;;;;;11.70;3.13;;;;;;;;;;4904477;29;20131;-66
2022/03/23 12:38:01;;;;;;;;;;;;;;;;;;4923403;29;20283;-64
2022/03/23 12:40:38;;;;;;;11.68;3.80;;;;;;;;;;4924052;29;20268;-66
2022/03/23 12:43:04;;;;;;;11.63;3.50;;;;;;;;;;4929128;29;20450;-66
2022/03/23 12:45:39;;;;;;;12.73;3.58;;;;;;;;;;4927618;29;20509;-66
2022/03/23 12:57:49;;;;;;;13.75;3.40;;;;;;;;;;4930332;29;20047;-64
2022/03/23 12:59:13;;;;;;;14.55;3.85;;;;;;;;;;4934020;29;20060;-65
2022/03/23 13:01:40;;;;;;;9.55;3.35;;;;;;;;;;4924318;29;20048;-64
2022/03/23 13:04:06;;;;;;;15.98;3.88;;;;;;;;;;4931914;29;20376;-66
2022/03/23 13:06:35;;;;;;;14.20;3.22;;;;;;;;;;4935919;29;20040;-70
2022/03/23 13:09:02;;;;;;;16.92;4.32;;;;;;;;;;4932364;29;20060;-65
2022/03/23 13:11:30;;;;;;;14.00;3.53;;;;;;;;;;4926822;29;20047;-66
2022/03/23 13:13:57;;;;;;;11.63;3.38;;;;;;;;;;4929754;29;20060;-65
2022/03/23 13:16:47;;;;;;;9.65;3.40;;;;;;;;;;4929715;29;20050;-65
2022/03/23 13:19:19;;;;;;;18.30;3.78;;;;;;;;;;4926851;29;20106;-65
2022/03/23 13:21:46;;;;;;;15.10;3.58;;;;;;;;;;4928287;29;20187;-67
2022/03/23 13:24:12;;;;;;;14.00;3.70;;;;;;;;;;4930639;29;20064;-66
2022/03/23 13:26:41;;;;;;;13.05;3.67;;;;;;;;;;4933442;29;20058;-64
2022/03/23 13:29:09;;;;;;;13.50;3.70;;;;;;;;;;4932118;29;20077;-65
2022/03/23 13:31:38;;;;;;;16.63;3.80;;;;;;;;;;4934127;29;20492;-65
2022/03/23 13:34:12;;;;;;;19.33;4.20;;;;;;;;;;4934815;29;20445;-65
2022/03/23 13:36:41;;;;;;;14.60;3.88;;;;;;;;;;4933240;29;20298;-66
2022/03/23 13:39:15;;;;;;;21.23;4.55;;;;;;;;;;4937272;29;20398;-66
2022/03/23 13:47:11;;;;;;;17.25;4.80;;;;;;;;;;4912816;29;20494;-66
2022/03/23 13:49:45;;;;;;;13.25;4.90;;;;;;;;;;4930929;29;20051;-68
2022/03/23 13:52:14;;;;;;;12.52;4.70;;;;;;;;;;4913892;29;20143;-66
2022/03/23 13:54:40;;;;;;;20.50;5.28;;;;;;;;;;4933527;29;20115;-69
2022/03/23 13:57:06;;;;;;;19.35;5.20;;;;;;;;;;4929802;29;20056;-63
2022/03/23 13:59:35;;;;;;;21.38;5.43;;;;;;;;;;4929527;29;20044;-65
2022/03/23 14:02:01;;;;;;;17.75;4.75;;;;;;;;;;4927446;29;20059;-65
2022/03/23 14:04:30;;;;;;;17.90;4.43;;;;;;;;;;4934304;29;20450;-65
2022/03/23 14:06:58;;;;;;;13.32;4.60;;;;;;;;;;4931767;29;20043;-65
2022/03/23 14:09:27;;;;;;;14.40;4.63;;;;;;;;;;4932324;29;20047;-65
2022/03/23 14:12:05;;;;;;;18.17;4.38;;;;;;;;;;4935470;29;20062;-65
2022/03/23 14:14:34;;;;;;;19.35;5.22;;;;;;;;;;4935600;29;20080;-65
2022/03/23 14:17:05;;;;;;;14.20;5.07;;;;;;;;;;4935620;29;20067;-64
2022/03/23 14:19:39;;;;;;;13.98;5.03;;;;;;;;;;4926222;29;20608;-65
2022/03/23 14:22:08;;;;;;;16.13;5.35;;;;;;;;;;4924579;29;20509;-65
2022/03/23 14:24:37;;;;;;;26.83;5.15;;;;;;;;;;4933773;29;20055;-66
2022/03/23 14:27:21;;;;;;;19.48;4.97;;;;;;;;;;4934792;29;20061;-69
2022/03/23 14:29:56;;;;;;;10.95;3.47;;;;;;;;;;4934264;29;20059;-66
2022/03/23 14:32:29;;;;;;;16.15;4.00;;;;;;;;;;4933728;29;20052;-65
2022/03/23 14:34:55;;;;;;;16.85;4.18;;;;;;;;;;4932888;29;20086;-67
2022/03/23 14:37:33;;;;;;;16.85;4.20;;;;;;;;;;4933501;29;20063;-67
2022/03/23 14:40:01;;;;;;;18.40;4.25;;;;;;;;;;4926878;29;20085;-65
2022/03/23 14:42:33;;;;;;;12.00;4.10;;;;;;;;;;4931008;29;20052;-65
2022/03/23 14:44:59;;;;;;;15.88;4.28;;;;;;;;;;4932643;29;20043;-68
2022/03/23 14:47:45;;;;;;;18.33;4.30;;;;;;;;;;4931562;29;20501;-65
2022/03/23 14:50:11;;;;;;;14.73;4.72;;;;;;;;;;4917105;29;20070;-65
2022/03/23 14:52:37;;;;;;;18.42;4.18;;;;;;;;;;4932351;29;20486;-65
2022/03/23 14:55:03;;;;;;;21.30;5.35;;;;;;;;;;4931265;29;20044;-65
2022/03/23 14:57:29;;;;;;;13.35;4.40;;;;;;;;;;4931640;29;20056;-64
2022/03/23 14:59:55;;;;;;;12.77;4.60;;;;;;;;;;4928487;29;20054;-65
2022/03/23 15:02:22;;;;;;;14.23;4.45;;;;;;;;;;4930784;29;20052;-65
2022/03/23 15:04:47;;;;;;;13.15;4.32;;;;;;;;;;4929261;29;20070;-64
2022/03/23 15:13:15;;;;;;;12.23;3.97;;;;;;;;;;4932024;29;20074;-65
2022/03/23 15:15:42;;;;;;;18.33;4.43;;;;;;;;;;4936098;29;20059;-66
2022/03/23 15:18:13;;;;;;;15.40;4.40;;;;;;;;;;4935480;29;20070;-67
2022/03/23 15:20:43;;;;;;;13.52;3.63;;;;;;;;;;4933727;29;20114;-64
2022/03/23 15:23:09;;;;;;;15.82;3.50;;;;;;;;;;4928208;29;20044;-64
2022/03/23 15:25:36;;;;;;;12.43;3.85;;;;;;;;;;4935094;29;20051;-64
2022/03/23 15:28:05;;;;;;;9.38;3.53;;;;;;;;;;4935219;29;20047;-65